METAR Data
IDs: Format: Raw Decoded Include TAF

Data at: 2050 UTC 19 May 2019

PAKW 191953Z AUTO 22011KT 10SM SCT090 14/08 A2975 RMK SLP073 T01390078 TSNO VIA AUTODIAL
PAKW 191853Z AUTO 20005KT 10SM BKN075 BKN090 OVC110 16/09 A2974 RMK SLP070 T01560089 TSNO VIA AUTODIAL
PAKW 191753Z AUTO 00000KT 10SM BKN095 14/09 A2974 RMK SLP069 T01390094 10144 20061 56004 TSNO VIA AUTODIAL
PAKW 191653Z AUTO 00000KT 10SM FEW100 13/09 A2974 RMK SLP070 T01280089 TSNO VIA AUTODIAL
PAKW 191553Z AUTO 00000KT 10SM BKN120 12/09 A2974 RMK SLP071 T01220094 TSNO VIA AUTODIAL
PAKW 191453Z AUTO 00000KT 10SM SCT095 09/08 A2975 RMK SLP073 T00940083 58003 TSNO VIA AUTODIAL
PAKW 191353Z AUTO 00000KT 10SM BKN110 08/07 A2975 RMK SLP074 T00780072 TSNO VIA AUTODIAL
PAKW 191153Z AUTO 00000KT 10SM SCT080 SCT095 07/06 A2976 RMK SLP076 T00670061 10100 20056 58009 TSNO VIA AUTODIAL
PAKW 191053Z AUTO 00000KT 10SM FEW120 07/06 A2976 RMK SLP079 T00670061 TSNO VIA AUTODIAL
PAKW 190953Z AUTO 00000KT 10SM CLR 07/07 A2978 RMK SLP084 T00670067 TSNO VIA AUTODIAL
PAKW 190753Z AUTO 00000KT 10SM CLR 09/08 A2979 RMK SLP088 T00890078 TSNO VIA AUTODIAL
PAKW 190653Z AUTO 00000KT 10SM CLR 09/07 A2980 RMK SLP089 T00890072 TSNO VIA AUTODIAL
PAKW 190553Z AUTO 00000KT 10SM CLR 11/07 A2980 RMK SLP091 60000 T01060072 10167 20106 53002 TSNO VIA AUTODIAL
PAKW 190453Z AUTO 00000KT 10SM CLR 12/08 A2979 RMK SLP088 T01220083 TSNO VIA AUTODIAL
PAKW 190253Z AUTO 00000KT 10SM FEW050 15/08 A2979 RMK SLP088 60000 T01500083 58002 TSNO VIA AUTODIAL
PAKW 190153Z AUTO VRB04KT 10SM FEW095 16/07 A2980 RMK RAE06 SLP089 P0000 T01560072 TSNO VIA AUTODIAL
PAKW 190053Z AUTO VRB03KT 10SM -RA FEW038 SCT055 BKN070 15/09 A2981 RMK RAB03E29B53 SLP094 P0000 T01500089 TSNO VIA AUTODIAL
PAKW 182353Z AUTO 19004KT 10SM FEW033 SCT070 17/07 A2980 RMK RAB29E40 SLP090 P0000 60000 T01670072 10178 20150 51001 TSNO VIA AUTODIAL
PAKW 182253Z AUTO 12009KT 10SM SCT049 BKN070 17/07 A2980 RMK SLP090 T01670067 TSNO VIA AUTODIAL
PAKW 182153Z AUTO VRB05KT 10SM SCT046 BKN055 BKN075 16/08 A2981 RMK RAB14E52 SLP092 P0000 T01610083 TSNO VIA AUTODIAL
PAKW 182053Z AUTO 14009G17KT 120V190 10SM FEW048 BKN065 16/06 A2980 RMK SLP089 T01610056 50000 TSNO VIA AUTODIAL
PAKW 181953Z AUTO 13013G20KT 10SM FEW046 BKN060 16/06 A2981 RMK SLP092 T01560056 TSNO VIA AUTODIAL
PAKW 181853Z AUTO VRB03G16KT 10SM BKN043 BKN055 16/07 A2980 RMK SLP089 T01610067 TSNO VIA AUTODIAL
PAKW 181753Z AUTO 15015G24KT 10SM FEW044 OVC100 16/06 A2980 RMK SLP089 T01560061 10161 20078 53006 TSNO VIA AUTODIAL
PAKW 181653Z AUTO VRB06KT 10SM BKN050 BKN095 15/07 A2979 RMK SLP086 T01500072 TSNO VIA AUTODIAL
PAKW 181553Z AUTO 00000KT 10SM OVC042 12/07 A2978 RMK SLP084 T01220072 TSNO VIA AUTODIAL
PAKW 181453Z AUTO 05005KT 10SM SCT036 BKN047 OVC055 12/07 A2978 RMK SLP083 T01170067 51010 TSNO VIA AUTODIAL
PAKW 181353Z AUTO VRB03KT 10SM FEW037 OVC049 11/07 A2977 RMK SLP080 T01060067 TSNO VIA AUTODIAL
PAKW 181253Z AUTO 00000KT 10SM FEW039 08/06 A2976 RMK SLP078 T00830061 TSNO VIA AUTODIAL
PAKW 181153Z AUTO 36003KT 10SM CLR 09/06 A2975 RMK RAB07E21 SLP074 P0000 60000 70002 T00890061 10117 20067 50007 TSNO VIA AUTODIAL
PAKW 181053Z AUTO VRB03KT 10SM FEW036 SCT045 OVC055 12/05 A2975 RMK SLP073 T01170050 TSNO VIA AUTODIAL